sensor_id;sensor_type;location;lat;lon;timestamp;P1;durP1;ratioP1;P2;durP2;ratioP2
64351;SDS011;50680;52.626;-8.668;2023-05-10T00:00:01;15.18;;;1.80;;
64351;SDS011;50680;52.626;-8.668;2023-05-10T00:02:31;19.02;;;1.90;;
64351;SDS011;50680;52.626;-8.668;2023-05-10T00:04:58;14.20;;;1.48;;
64351;SDS011;50680;52.626;-8.668;2023-05-10T00:07:24;15.70;;;2.22;;
64351;SDS011;50680;52.626;-8.668;2023-05-10T00:09:51;19.17;;;2.70;;
64351;SDS011;50680;52.626;-8.668;2023-05-10T00:12:18;17.65;;;2.47;;
64351;SDS011;50680;52.626;-8.668;2023-05-10T00:14:45;16.10;;;1.88;;
64351;SDS011;50680;52.626;-8.668;2023-05-10T00:17:11;18.05;;;2.72;;
64351;SDS011;50680;52.626;-8.668;2023-05-10T00:19:38;22.08;;;2.38;;
64351;SDS011;50680;52.626;-8.668;2023-05-10T00:22:05;27.00;;;3.03;;
64351;SDS011;50680;52.626;-8.668;2023-05-10T00:24:32;18.40;;;2.53;;
64351;SDS011;50680;52.626;-8.668;2023-05-10T00:26:59;19.58;;;2.67;;
64351;SDS011;50680;52.626;-8.668;2023-05-10T00:29:26;19.15;;;2.50;;
64351;SDS011;50680;52.626;-8.668;2023-05-10T00:31:54;24.45;;;2.45;;
64351;SDS011;50680;52.626;-8.668;2023-05-10T00:34:21;23.55;;;2.15;;
64351;SDS011;50680;52.626;-8.668;2023-05-10T00:36:48;34.42;;;3.30;;
64351;SDS011;50680;52.626;-8.668;2023-05-10T00:39:15;29.77;;;2.83;;
64351;SDS011;50680;52.626;-8.668;2023-05-10T00:41:42;29.45;;;2.60;;
64351;SDS011;50680;52.626;-8.668;2023-05-10T00:44:08;16.52;;;2.40;;
64351;SDS011;50680;52.626;-8.668;2023-05-10T00:46:35;25.88;;;3.00;;
64351;SDS011;50680;52.626;-8.668;2023-05-10T00:49:02;18.55;;;2.10;;
64351;SDS011;50680;52.626;-8.668;2023-05-10T00:51:31;26.27;;;2.72;;
64351;SDS011;50680;52.626;-8.668;2023-05-10T00:53:58;21.92;;;2.88;;
64351;SDS011;50680;52.626;-8.668;2023-05-10T00:56:25;27.60;;;2.78;;
64351;SDS011;50680;52.626;-8.668;2023-05-10T00:58:54;23.08;;;2.60;;
64351;SDS011;50680;52.626;-8.668;2023-05-10T01:01:22;15.57;;;1.83;;
64351;SDS011;50680;52.626;-8.668;2023-05-10T01:03:48;16.40;;;2.60;;
64351;SDS011;50680;52.626;-8.668;2023-05-10T01:06:16;16.00;;;2.30;;
64351;SDS011;50680;52.626;-8.668;2023-05-10T01:08:43;24.05;;;2.55;;
64351;SDS011;50680;52.626;-8.668;2023-05-10T01:11:09;24.42;;;2.97;;
64351;SDS011;50680;52.626;-8.668;2023-05-10T01:13:37;23.83;;;2.33;;
64351;SDS011;50680;52.626;-8.668;2023-05-10T01:16:05;15.93;;;2.05;;
64351;SDS011;50680;52.626;-8.668;2023-05-10T01:18:34;18.23;;;1.70;;
64351;SDS011;50680;52.626;-8.668;2023-05-10T01:21:10;19.45;;;1.83;;
64351;SDS011;50680;52.626;-8.668;2023-05-10T01:29:11;18.38;;;1.98;;
64351;SDS011;50680;52.626;-8.668;2023-05-10T01:34:54;21.30;;;2.40;;
64351;SDS011;50680;52.626;-8.668;2023-05-10T01:37:25;19.77;;;1.80;;
64351;SDS011;50680;52.626;-8.668;2023-05-10T01:40:05;10.45;;;2.03;;
64351;SDS011;50680;52.626;-8.668;2023-05-10T01:42:39;22.70;;;2.33;;
64351;SDS011;50680;52.626;-8.668;2023-05-10T01:45:24;17.50;;;1.80;;
64351;SDS011;50680;52.626;-8.668;2023-05-10T01:48:09;16.52;;;1.60;;
64351;SDS011;50680;52.626;-8.668;2023-05-10T01:50:40;19.95;;;1.98;;
64351;SDS011;50680;52.626;-8.668;2023-05-10T01:53:10;23.85;;;1.80;;
64351;SDS011;50680;52.626;-8.668;2023-05-10T01:55:43;15.90;;;2.00;;
64351;SDS011;50680;52.626;-8.668;2023-05-10T01:58:13;18.08;;;2.42;;
64351;SDS011;50680;52.626;-8.668;2023-05-10T02:00:44;17.83;;;1.70;;
64351;SDS011;50680;52.626;-8.668;2023-05-10T02:03:13;12.27;;;1.40;;
64351;SDS011;50680;52.626;-8.668;2023-05-10T02:05:43;17.05;;;1.58;;
64351;SDS011;50680;52.626;-8.668;2023-05-10T02:08:12;19.90;;;1.92;;
64351;SDS011;50680;52.626;-8.668;2023-05-10T02:10:41;13.95;;;1.77;;
64351;SDS011;50680;52.626;-8.668;2023-05-10T02:13:09;17.25;;;2.00;;
64351;SDS011;50680;52.626;-8.668;2023-05-10T02:15:38;12.80;;;1.60;;
64351;SDS011;50680;52.626;-8.668;2023-05-10T02:18:06;19.83;;;1.85;;
64351;SDS011;50680;52.626;-8.668;2023-05-10T02:20:35;17.13;;;1.65;;
64351;SDS011;50680;52.626;-8.668;2023-05-10T02:23:03;12.43;;;1.52;;
64351;SDS011;50680;52.626;-8.668;2023-05-10T02:25:31;16.42;;;1.83;;
64351;SDS011;50680;52.626;-8.668;2023-05-10T02:28:00;13.32;;;2.22;;
64351;SDS011;50680;52.626;-8.668;2023-05-10T02:30:28;15.85;;;1.55;;
64351;SDS011;50680;52.626;-8.668;2023-05-10T02:32:58;18.30;;;1.92;;
64351;SDS011;50680;52.626;-8.668;2023-05-10T02:35:26;13.00;;;1.63;;
64351;SDS011;50680;52.626;-8.668;2023-05-10T02:37:54;12.23;;;1.25;;
64351;SDS011;50680;52.626;-8.668;2023-05-10T02:40:21;7.93;;;1.13;;
64351;SDS011;50680;52.626;-8.668;2023-05-10T02:42:54;9.52;;;1.00;;
64351;SDS011;50680;52.626;-8.668;2023-05-10T02:45:23;9.13;;;0.90;;
64351;SDS011;50680;52.626;-8.668;2023-05-10T02:47:58;8.68;;;0.90;;
64351;SDS011;50680;52.626;-8.668;2023-05-10T02:50:28;10.98;;;0.98;;
64351;SDS011;50680;52.626;-8.668;2023-05-10T02:53:02;12.25;;;1.63;;
64351;SDS011;50680;52.626;-8.668;2023-05-10T02:55:36;15.15;;;1.52;;
64351;SDS011;50680;52.626;-8.668;2023-05-10T02:58:05;17.08;;;1.63;;
64351;SDS011;50680;52.626;-8.668;2023-05-10T03:00:32;12.30;;;1.60;;
64351;SDS011;50680;52.626;-8.668;2023-05-10T03:02:59;17.85;;;1.48;;
64351;SDS011;50680;52.626;-8.668;2023-05-10T03:05:26;20.40;;;2.00;;
64351;SDS011;50680;52.626;-8.668;2023-05-10T03:07:53;24.73;;;2.60;;
64351;SDS011;50680;52.626;-8.668;2023-05-10T03:10:22;8.82;;;1.52;;
64351;SDS011;50680;52.626;-8.668;2023-05-10T03:13:13;20.55;;;2.67;;
64351;SDS011;50680;52.626;-8.668;2023-05-10T03:16:06;19.90;;;2.25;;
64351;SDS011;50680;52.626;-8.668;2023-05-10T03:18:56;30.85;;;2.45;;
64351;SDS011;50680;52.626;-8.668;2023-05-10T03:21:47;21.48;;;1.88;;
64351;SDS011;50680;52.626;-8.668;2023-05-10T03:24:18;18.60;;;2.40;;
64351;SDS011;50680;52.626;-8.668;2023-05-10T03:26:48;19.60;;;2.40;;
64351;SDS011;50680;52.626;-8.668;2023-05-10T03:29:16;18.92;;;2.28;;
64351;SDS011;50680;52.626;-8.668;2023-05-10T03:31:44;17.08;;;1.95;;
64351;SDS011;50680;52.626;-8.668;2023-05-10T03:34:10;24.85;;;2.45;;
64351;SDS011;50680;52.626;-8.668;2023-05-10T03:36:37;20.48;;;1.80;;
64351;SDS011;50680;52.626;-8.668;2023-05-10T03:39:04;20.80;;;2.35;;
64351;SDS011;50680;52.626;-8.668;2023-05-10T03:41:31;27.88;;;2.72;;
64351;SDS011;50680;52.626;-8.668;2023-05-10T03:43:58;16.80;;;1.90;;
64351;SDS011;50680;52.626;-8.668;2023-05-10T03:46:24;18.55;;;1.92;;
64351;SDS011;50680;52.626;-8.668;2023-05-10T03:48:51;18.42;;;1.80;;
64351;SDS011;50680;52.626;-8.668;2023-05-10T03:51:18;16.30;;;1.52;;
64351;SDS011;50680;52.626;-8.668;2023-05-10T03:53:45;19.60;;;2.40;;
64351;SDS011;50680;52.626;-8.668;2023-05-10T03:56:12;14.73;;;2.00;;
64351;SDS011;50680;52.626;-8.668;2023-05-10T03:58:39;18.50;;;1.67;;
64351;SDS011;50680;52.626;-8.668;2023-05-10T04:01:06;17.67;;;2.40;;
64351;SDS011;50680;52.626;-8.668;2023-05-10T04:03:32;15.40;;;1.83;;
64351;SDS011;50680;52.626;-8.668;2023-05-10T04:06:01;18.45;;;1.40;;
64351;SDS011;50680;52.626;-8.668;2023-05-10T04:08:28;9.65;;;1.58;;
64351;SDS011;50680;52.626;-8.668;2023-05-10T04:11:05;15.77;;;1.63;;
64351;SDS011;50680;52.626;-8.668;2023-05-10T04:13:36;19.85;;;2.58;;
64351;SDS011;50680;52.626;-8.668;2023-05-10T04:16:04;9.85;;;1.30;;
64351;SDS011;50680;52.626;-8.668;2023-05-10T04:18:31;10.95;;;1.23;;
64351;SDS011;50680;52.626;-8.668;2023-05-10T04:20:58;16.42;;;1.55;;
64351;SDS011;50680;52.626;-8.668;2023-05-10T04:23:25;10.30;;;1.20;;
64351;SDS011;50680;52.626;-8.668;2023-05-10T04:25:58;10.45;;;1.73;;
64351;SDS011;50680;52.626;-8.668;2023-05-10T04:28:26;8.65;;;0.70;;
64351;SDS011;50680;52.626;-8.668;2023-05-10T04:30:59;5.35;;;0.80;;
64351;SDS011;50680;52.626;-8.668;2023-05-10T04:33:27;7.22;;;0.80;;
64351;SDS011;50680;52.626;-8.668;2023-05-10T04:35:54;8.57;;;1.00;;
64351;SDS011;50680;52.626;-8.668;2023-05-10T04:38:21;7.47;;;0.90;;
64351;SDS011;50680;52.626;-8.668;2023-05-10T04:40:47;10.15;;;1.08;;
64351;SDS011;50680;52.626;-8.668;2023-05-10T04:43:14;11.90;;;1.33;;
64351;SDS011;50680;52.626;-8.668;2023-05-10T04:45:41;6.05;;;0.82;;
64351;SDS011;50680;52.626;-8.668;2023-05-10T04:48:08;7.10;;;1.00;;
64351;SDS011;50680;52.626;-8.668;2023-05-10T04:50:35;8.30;;;1.08;;
64351;SDS011;50680;52.626;-8.668;2023-05-10T04:53:02;11.77;;;1.35;;
64351;SDS011;50680;52.626;-8.668;2023-05-10T04:55:28;9.48;;;0.98;;
64351;SDS011;50680;52.626;-8.668;2023-05-10T04:57:55;11.13;;;0.85;;
64351;SDS011;50680;52.626;-8.668;2023-05-10T05:00:23;9.93;;;0.95;;
64351;SDS011;50680;52.626;-8.668;2023-05-10T05:02:51;12.75;;;1.13;;
64351;SDS011;50680;52.626;-8.668;2023-05-10T05:05:18;18.13;;;0.95;;
64351;SDS011;50680;52.626;-8.668;2023-05-10T05:07:44;17.48;;;1.17;;
64351;SDS011;50680;52.626;-8.668;2023-05-10T05:10:12;16.23;;;1.20;;
64351;SDS011;50680;52.626;-8.668;2023-05-10T05:12:39;13.55;;;1.10;;
64351;SDS011;50680;52.626;-8.668;2023-05-10T05:15:06;13.32;;;1.20;;
64351;SDS011;50680;52.626;-8.668;2023-05-10T05:17:35;17.50;;;1.05;;
64351;SDS011;50680;52.626;-8.668;2023-05-10T05:20:02;12.90;;;1.02;;
64351;SDS011;50680;52.626;-8.668;2023-05-10T05:22:29;12.80;;;1.17;;
64351;SDS011;50680;52.626;-8.668;2023-05-10T05:24:56;11.15;;;1.10;;
64351;SDS011;50680;52.626;-8.668;2023-05-10T05:27:24;11.10;;;1.35;;
64351;SDS011;50680;52.626;-8.668;2023-05-10T05:29:53;10.57;;;1.13;;
64351;SDS011;50680;52.626;-8.668;2023-05-10T05:32:20;13.77;;;1.00;;
64351;SDS011;50680;52.626;-8.668;2023-05-10T05:34:47;19.13;;;1.10;;
64351;SDS011;50680;52.626;-8.668;2023-05-10T05:37:15;11.57;;;1.15;;
64351;SDS011;50680;52.626;-8.668;2023-05-10T05:39:43;9.93;;;1.10;;
64351;SDS011;50680;52.626;-8.668;2023-05-10T05:42:11;9.38;;;1.58;;
64351;SDS011;50680;52.626;-8.668;2023-05-10T05:44:39;11.30;;;1.30;;
64351;SDS011;50680;52.626;-8.668;2023-05-10T05:47:06;9.05;;;1.40;;
64351;SDS011;50680;52.626;-8.668;2023-05-10T05:49:33;7.93;;;1.25;;
64351;SDS011;50680;52.626;-8.668;2023-05-10T05:52:00;12.18;;;1.13;;
64351;SDS011;50680;52.626;-8.668;2023-05-10T05:54:29;13.23;;;1.45;;
64351;SDS011;50680;52.626;-8.668;2023-05-10T05:56:57;16.88;;;1.20;;
64351;SDS011;50680;52.626;-8.668;2023-05-10T05:59:26;12.85;;;1.40;;
64351;SDS011;50680;52.626;-8.668;2023-05-10T06:01:53;11.13;;;1.50;;
64351;SDS011;50680;52.626;-8.668;2023-05-10T06:04:20;15.48;;;2.33;;
64351;SDS011;50680;52.626;-8.668;2023-05-10T06:06:47;8.20;;;1.00;;
64351;SDS011;50680;52.626;-8.668;2023-05-10T06:09:14;10.75;;;1.23;;
64351;SDS011;50680;52.626;-8.668;2023-05-10T06:11:41;4.72;;;0.80;;
64351;SDS011;50680;52.626;-8.668;2023-05-10T06:14:08;9.93;;;0.60;;
64351;SDS011;50680;52.626;-8.668;2023-05-10T06:16:35;5.00;;;0.50;;
64351;SDS011;50680;52.626;-8.668;2023-05-10T06:19:02;5.50;;;0.50;;
64351;SDS011;50680;52.626;-8.668;2023-05-10T06:21:29;6.80;;;0.98;;
64351;SDS011;50680;52.626;-8.668;2023-05-10T06:23:56;3.17;;;0.55;;
64351;SDS011;50680;52.626;-8.668;2023-05-10T06:26:23;7.50;;;0.50;;
64351;SDS011;50680;52.626;-8.668;2023-05-10T06:28:51;7.35;;;0.50;;
64351;SDS011;50680;52.626;-8.668;2023-05-10T06:31:17;13.00;;;1.30;;
64351;SDS011;50680;52.626;-8.668;2023-05-10T06:33:44;13.43;;;1.60;;
64351;SDS011;50680;52.626;-8.668;2023-05-10T06:36:11;9.60;;;1.05;;
64351;SDS011;50680;52.626;-8.668;2023-05-10T06:38:39;11.73;;;0.80;;
64351;SDS011;50680;52.626;-8.668;2023-05-10T06:41:06;8.65;;;0.93;;
64351;SDS011;50680;52.626;-8.668;2023-05-10T06:43:33;10.48;;;0.77;;
64351;SDS011;50680;52.626;-8.668;2023-05-10T06:46:00;18.33;;;1.30;;
64351;SDS011;50680;52.626;-8.668;2023-05-10T06:48:27;5.95;;;1.00;;
64351;SDS011;50680;52.626;-8.668;2023-05-10T06:50:54;11.98;;;1.58;;
64351;SDS011;50680;52.626;-8.668;2023-05-10T06:53:20;11.32;;;1.38;;
64351;SDS011;50680;52.626;-8.668;2023-05-10T06:55:48;11.50;;;1.42;;
64351;SDS011;50680;52.626;-8.668;2023-05-10T06:58:15;11.65;;;1.00;;
64351;SDS011;50680;52.626;-8.668;2023-05-10T07:00:42;14.05;;;0.93;;
64351;SDS011;50680;52.626;-8.668;2023-05-10T07:03:10;5.75;;;0.93;;
64351;SDS011;50680;52.626;-8.668;2023-05-10T07:05:37;9.35;;;1.38;;
64351;SDS011;50680;52.626;-8.668;2023-05-10T07:08:04;7.43;;;0.73;;
64351;SDS011;50680;52.626;-8.668;2023-05-10T07:10:31;8.55;;;1.05;;
64351;SDS011;50680;52.626;-8.668;2023-05-10T07:12:59;11.68;;;1.55;;
64351;SDS011;50680;52.626;-8.668;2023-05-10T07:15:26;7.18;;;1.05;;
64351;SDS011;50680;52.626;-8.668;2023-05-10T07:17:54;7.78;;;0.90;;
64351;SDS011;50680;52.626;-8.668;2023-05-10T07:20:22;6.93;;;0.90;;
64351;SDS011;50680;52.626;-8.668;2023-05-10T07:22:48;13.38;;;1.27;;
64351;SDS011;50680;52.626;-8.668;2023-05-10T07:25:15;9.38;;;0.88;;
64351;SDS011;50680;52.626;-8.668;2023-05-10T07:27:43;11.60;;;1.02;;
64351;SDS011;50680;52.626;-8.668;2023-05-10T07:30:10;11.52;;;1.17;;
64351;SDS011;50680;52.626;-8.668;2023-05-10T07:32:37;14.75;;;1.40;;
64351;SDS011;50680;52.626;-8.668;2023-05-10T07:35:06;8.70;;;1.05;;
64351;SDS011;50680;52.626;-8.668;2023-05-10T07:37:33;11.07;;;1.00;;
64351;SDS011;50680;52.626;-8.668;2023-05-10T07:40:00;4.47;;;0.90;;
64351;SDS011;50680;52.626;-8.668;2023-05-10T07:42:27;8.13;;;0.60;;
64351;SDS011;50680;52.626;-8.668;2023-05-10T07:44:54;7.00;;;1.00;;
64351;SDS011;50680;52.626;-8.668;2023-05-10T07:47:21;8.30;;;0.80;;
64351;SDS011;50680;52.626;-8.668;2023-05-10T07:49:48;11.13;;;0.93;;
64351;SDS011;50680;52.626;-8.668;2023-05-10T07:52:15;9.25;;;0.90;;
64351;SDS011;50680;52.626;-8.668;2023-05-10T07:54:42;8.27;;;0.82;;
64351;SDS011;50680;52.626;-8.668;2023-05-10T07:57:09;10.25;;;0.98;;
64351;SDS011;50680;52.626;-8.668;2023-05-10T07:59:36;12.38;;;1.20;;
64351;SDS011;50680;52.626;-8.668;2023-05-10T08:02:02;9.18;;;1.05;;
64351;SDS011;50680;52.626;-8.668;2023-05-10T08:04:29;10.07;;;1.35;;
64351;SDS011;50680;52.626;-8.668;2023-05-10T08:06:56;9.63;;;0.75;;
64351;SDS011;50680;52.626;-8.668;2023-05-10T08:09:23;9.63;;;0.93;;
64351;SDS011;50680;52.626;-8.668;2023-05-10T08:11:50;8.20;;;0.73;;
64351;SDS011;50680;52.626;-8.668;2023-05-10T08:14:17;7.70;;;0.90;;
64351;SDS011;50680;52.626;-8.668;2023-05-10T08:16:44;6.78;;;0.75;;
64351;SDS011;50680;52.626;-8.668;2023-05-10T08:19:11;6.28;;;0.80;;
64351;SDS011;50680;52.626;-8.668;2023-05-10T08:21:38;6.35;;;0.60;;
64351;SDS011;50680;52.626;-8.668;2023-05-10T08:24:06;7.88;;;0.85;;
64351;SDS011;50680;52.626;-8.668;2023-05-10T08:26:33;4.38;;;0.82;;
64351;SDS011;50680;52.626;-8.668;2023-05-10T08:29:24;3.95;;;0.50;;
64351;SDS011;50680;52.626;-8.668;2023-05-10T08:31:53;12.55;;;0.80;;
64351;SDS011;50680;52.626;-8.668;2023-05-10T08:34:20;6.78;;;0.70;;
64351;SDS011;50680;52.626;-8.668;2023-05-10T08:36:47;8.27;;;0.70;;
64351;SDS011;50680;52.626;-8.668;2023-05-10T08:39:14;7.40;;;1.02;;
64351;SDS011;50680;52.626;-8.668;2023-05-10T08:41:55;9.88;;;0.90;;
64351;SDS011;50680;52.626;-8.668;2023-05-10T08:44:28;2.03;;;0.50;;
64351;SDS011;50680;52.626;-8.668;2023-05-10T08:46:56;10.75;;;0.80;;
64351;SDS011;50680;52.626;-8.668;2023-05-10T08:49:26;11.02;;;0.95;;
64351;SDS011;50680;52.626;-8.668;2023-05-10T08:51:54;7.63;;;1.00;;
64351;SDS011;50680;52.626;-8.668;2023-05-10T08:54:23;10.68;;;1.13;;
64351;SDS011;50680;52.626;-8.668;2023-05-10T08:56:51;10.40;;;0.88;;
64351;SDS011;50680;52.626;-8.668;2023-05-10T08:59:19;7.00;;;0.50;;
64351;SDS011;50680;52.626;-8.668;2023-05-10T09:01:46;7.40;;;0.50;;
64351;SDS011;50680;52.626;-8.668;2023-05-10T09:04:15;8.40;;;0.90;;
64351;SDS011;50680;52.626;-8.668;2023-05-10T09:06:42;11.32;;;0.60;;
64351;SDS011;50680;52.626;-8.668;2023-05-10T09:09:09;7.20;;;1.15;;
64351;SDS011;50680;52.626;-8.668;2023-05-10T09:11:36;5.30;;;0.60;;
64351;SDS011;50680;52.626;-8.668;2023-05-10T09:14:03;5.65;;;0.93;;
64351;SDS011;50680;52.626;-8.668;2023-05-10T09:16:30;5.65;;;0.75;;
64351;SDS011;50680;52.626;-8.668;2023-05-10T09:18:57;10.00;;;1.00;;
64351;SDS011;50680;52.626;-8.668;2023-05-10T09:21:24;8.68;;;0.88;;
64351;SDS011;50680;52.626;-8.668;2023-05-10T09:23:51;6.82;;;1.20;;
64351;SDS011;50680;52.626;-8.668;2023-05-10T09:26:23;9.05;;;0.88;;
64351;SDS011;50680;52.626;-8.668;2023-05-10T09:28:54;7.22;;;0.60;;
64351;SDS011;50680;52.626;-8.668;2023-05-10T09:31:22;13.40;;;1.10;;
64351;SDS011;50680;52.626;-8.668;2023-05-10T09:33:51;9.65;;;0.95;;
64351;SDS011;50680;52.626;-8.668;2023-05-10T09:36:18;7.43;;;0.80;;
64351;SDS011;50680;52.626;-8.668;2023-05-10T09:38:46;10.18;;;1.17;;
64351;SDS011;50680;52.626;-8.668;2023-05-10T09:43:55;11.10;;;1.23;;
64351;SDS011;50680;52.626;-8.668;2023-05-10T09:46:22;7.97;;;1.20;;
64351;SDS011;50680;52.626;-8.668;2023-05-10T09:48:49;5.07;;;0.80;;
64351;SDS011;50680;52.626;-8.668;2023-05-10T09:51:22;12.80;;;1.08;;
64351;SDS011;50680;52.626;-8.668;2023-05-10T09:54:08;6.72;;;0.65;;
64351;SDS011;50680;52.626;-8.668;2023-05-10T09:56:37;8.82;;;0.75;;
64351;SDS011;50680;52.626;-8.668;2023-05-10T09:59:07;8.43;;;1.08;;
64351;SDS011;50680;52.626;-8.668;2023-05-10T10:01:36;11.50;;;1.00;;
64351;SDS011;50680;52.626;-8.668;2023-05-10T10:04:07;7.50;;;0.95;;
64351;SDS011;50680;52.626;-8.668;2023-05-10T10:06:36;7.55;;;1.75;;
64351;SDS011;50680;52.626;-8.668;2023-05-10T10:09:04;8.50;;;1.02;;
64351;SDS011;50680;52.626;-8.668;2023-05-10T10:11:36;7.30;;;1.33;;
64351;SDS011;50680;52.626;-8.668;2023-05-10T10:14:04;6.20;;;1.10;;
64351;SDS011;50680;52.626;-8.668;2023-05-10T10:16:32;9.32;;;1.13;;
64351;SDS011;50680;52.626;-8.668;2023-05-10T10:18:59;13.30;;;1.30;;
64351;SDS011;50680;52.626;-8.668;2023-05-10T10:21:27;7.65;;;1.08;;
64351;SDS011;50680;52.626;-8.668;2023-05-10T10:23:54;6.95;;;0.77;;
64351;SDS011;50680;52.626;-8.668;2023-05-10T10:26:20;6.40;;;1.02;;
64351;SDS011;50680;52.626;-8.668;2023-05-10T10:28:56;8.88;;;1.48;;
64351;SDS011;50680;52.626;-8.668;2023-05-10T10:31:38;12.15;;;1.10;;
64351;SDS011;50680;52.626;-8.668;2023-05-10T10:34:08;7.45;;;0.75;;
64351;SDS011;50680;52.626;-8.668;2023-05-10T10:36:42;6.75;;;0.90;;
64351;SDS011;50680;52.626;-8.668;2023-05-10T10:39:11;11.57;;;0.80;;
64351;SDS011;50680;52.626;-8.668;2023-05-10T10:41:39;8.70;;;1.00;;
64351;SDS011;50680;52.626;-8.668;2023-05-10T10:46:59;4.63;;;0.73;;
64351;SDS011;50680;52.626;-8.668;2023-05-10T10:49:27;5.47;;;0.60;;
64351;SDS011;50680;52.626;-8.668;2023-05-10T10:52:30;7.82;;;0.85;;
64351;SDS011;50680;52.626;-8.668;2023-05-10T10:55:06;5.03;;;0.52;;
64351;SDS011;50680;52.626;-8.668;2023-05-10T11:02:47;5.07;;;0.70;;
64351;SDS011;50680;52.626;-8.668;2023-05-10T11:07:56;4.15;;;0.50;;
64351;SDS011;50680;52.626;-8.668;2023-05-10T11:10:25;4.03;;;0.73;;
64351;SDS011;50680;52.626;-8.668;2023-05-10T11:13:02;3.83;;;0.55;;
64351;SDS011;50680;52.626;-8.668;2023-05-10T11:15:35;4.70;;;0.60;;
64351;SDS011;50680;52.626;-8.668;2023-05-10T11:18:17;2.85;;;0.40;;
64351;SDS011;50680;52.626;-8.668;2023-05-10T11:20:54;6.40;;;0.43;;
64351;SDS011;50680;52.626;-8.668;2023-05-10T11:23:29;4.25;;;0.60;;
64351;SDS011;50680;52.626;-8.668;2023-05-10T11:26:14;5.00;;;0.50;;
64351;SDS011;50680;52.626;-8.668;2023-05-10T11:28:44;4.50;;;0.55;;
64351;SDS011;50680;52.626;-8.668;2023-05-10T11:31:16;5.43;;;0.50;;
64351;SDS011;50680;52.626;-8.668;2023-05-10T11:33:48;7.18;;;0.70;;
64351;SDS011;50680;52.626;-8.668;2023-05-10T11:36:17;3.30;;;0.65;;
64351;SDS011;50680;52.626;-8.668;2023-05-10T11:38:46;11.95;;;1.40;;
64351;SDS011;50680;52.626;-8.668;2023-05-10T11:41:17;6.68;;;0.90;;
64351;SDS011;50680;52.626;-8.668;2023-05-10T11:43:52;9.00;;;0.90;;
64351;SDS011;50680;52.626;-8.668;2023-05-10T11:46:20;9.90;;;0.98;;
64351;SDS011;50680;52.626;-8.668;2023-05-10T11:48:49;8.07;;;0.85;;
64351;SDS011;50680;52.626;-8.668;2023-05-10T11:51:23;7.30;;;0.60;;
64351;SDS011;50680;52.626;-8.668;2023-05-10T11:53:52;4.47;;;0.55;;
64351;SDS011;50680;52.626;-8.668;2023-05-10T11:56:20;13.57;;;1.40;;
64351;SDS011;50680;52.626;-8.668;2023-05-10T11:58:54;9.48;;;0.88;;
64351;SDS011;50680;52.626;-8.668;2023-05-10T12:01:26;12.70;;;0.85;;
64351;SDS011;50680;52.626;-8.668;2023-05-10T12:03:54;8.95;;;1.00;;
64351;SDS011;50680;52.626;-8.668;2023-05-10T12:06:27;8.02;;;1.27;;
64351;SDS011;50680;52.626;-8.668;2023-05-10T12:08:55;12.93;;;1.52;;
64351;SDS011;50680;52.626;-8.668;2023-05-10T12:11:26;9.55;;;1.00;;
64351;SDS011;50680;52.626;-8.668;2023-05-10T12:13:54;11.23;;;1.17;;
64351;SDS011;50680;52.626;-8.668;2023-05-10T12:16:24;7.85;;;0.90;;
64351;SDS011;50680;52.626;-8.668;2023-05-10T12:18:53;5.75;;;0.60;;
64351;SDS011;50680;52.626;-8.668;2023-05-10T12:21:23;5.43;;;0.75;;
64351;SDS011;50680;52.626;-8.668;2023-05-10T12:23:51;7.03;;;0.90;;
64351;SDS011;50680;52.626;-8.668;2023-05-10T12:26:22;5.72;;;0.50;;
64351;SDS011;50680;52.626;-8.668;2023-05-10T12:28:53;4.10;;;0.65;;
64351;SDS011;50680;52.626;-8.668;2023-05-10T12:31:20;6.47;;;0.90;;
64351;SDS011;50680;52.626;-8.668;2023-05-10T12:33:47;5.85;;;0.80;;
64351;SDS011;50680;52.626;-8.668;2023-05-10T12:36:15;9.40;;;0.75;;
64351;SDS011;50680;52.626;-8.668;2023-05-10T12:38:43;3.90;;;0.50;;
64351;SDS011;50680;52.626;-8.668;2023-05-10T12:41:15;6.90;;;0.80;;
64351;SDS011;50680;52.626;-8.668;2023-05-10T12:43:44;2.75;;;0.60;;
64351;SDS011;50680;52.626;-8.668;2023-05-10T12:46:16;4.97;;;0.60;;
64351;SDS011;50680;52.626;-8.668;2023-05-10T12:48:44;6.20;;;0.73;;
64351;SDS011;50680;52.626;-8.668;2023-05-10T12:51:34;5.10;;;0.73;;
64351;SDS011;50680;52.626;-8.668;2023-05-10T12:54:02;5.38;;;0.50;;
64351;SDS011;50680;52.626;-8.668;2023-05-10T12:56:29;7.70;;;0.77;;
64351;SDS011;50680;52.626;-8.668;2023-05-10T12:58:55;5.15;;;0.90;;
64351;SDS011;50680;52.626;-8.668;2023-05-10T13:01:22;6.57;;;1.02;;
64351;SDS011;50680;52.626;-8.668;2023-05-10T13:03:49;3.95;;;0.80;;
64351;SDS011;50680;52.626;-8.668;2023-05-10T13:06:16;6.05;;;0.93;;
64351;SDS011;50680;52.626;-8.668;2023-05-10T13:08:43;9.35;;;1.02;;
64351;SDS011;50680;52.626;-8.668;2023-05-10T13:11:10;7.30;;;1.08;;
64351;SDS011;50680;52.626;-8.668;2023-05-10T13:13:37;6.50;;;0.90;;
64351;SDS011;50680;52.626;-8.668;2023-05-10T13:16:04;4.88;;;0.50;;
64351;SDS011;50680;52.626;-8.668;2023-05-10T13:18:31;5.72;;;0.90;;
64351;SDS011;50680;52.626;-8.668;2023-05-10T13:20:57;6.80;;;0.77;;
64351;SDS011;50680;52.626;-8.668;2023-05-10T13:23:24;5.85;;;0.70;;
64351;SDS011;50680;52.626;-8.668;2023-05-10T13:25:51;5.80;;;0.90;;
64351;SDS011;50680;52.626;-8.668;2023-05-10T13:28:18;5.75;;;0.70;;
64351;SDS011;50680;52.626;-8.668;2023-05-10T13:30:45;10.70;;;1.10;;
64351;SDS011;50680;52.626;-8.668;2023-05-10T13:33:12;7.25;;;1.20;;
64351;SDS011;50680;52.626;-8.668;2023-05-10T13:35:38;6.47;;;0.85;;
64351;SDS011;50680;52.626;-8.668;2023-05-10T13:38:05;7.43;;;0.90;;
64351;SDS011;50680;52.626;-8.668;2023-05-10T13:40:34;8.27;;;0.73;;
64351;SDS011;50680;52.626;-8.668;2023-05-10T13:43:02;10.00;;;1.20;;
64351;SDS011;50680;52.626;-8.668;2023-05-10T13:45:29;9.20;;;1.27;;
64351;SDS011;50680;52.626;-8.668;2023-05-10T13:47:56;6.00;;;0.95;;
64351;SDS011;50680;52.626;-8.668;2023-05-10T13:50:23;7.88;;;0.93;;
64351;SDS011;50680;52.626;-8.668;2023-05-10T13:52:50;5.25;;;0.90;;
64351;SDS011;50680;52.626;-8.668;2023-05-10T13:55:17;6.45;;;0.77;;
64351;SDS011;50680;52.626;-8.668;2023-05-10T13:57:44;8.77;;;0.80;;
64351;SDS011;50680;52.626;-8.668;2023-05-10T14:00:11;4.55;;;0.85;;
64351;SDS011;50680;52.626;-8.668;2023-05-10T14:02:39;6.82;;;0.93;;
64351;SDS011;50680;52.626;-8.668;2023-05-10T14:05:06;7.88;;;0.80;;
64351;SDS011;50680;52.626;-8.668;2023-05-10T14:07:34;8.40;;;1.25;;
64351;SDS011;50680;52.626;-8.668;2023-05-10T14:10:00;3.55;;;0.50;;
64351;SDS011;50680;52.626;-8.668;2023-05-10T14:12:27;3.15;;;0.68;;
64351;SDS011;50680;52.626;-8.668;2023-05-10T14:14:54;2.40;;;0.35;;
64351;SDS011;50680;52.626;-8.668;2023-05-10T14:17:21;3.97;;;0.32;;
64351;SDS011;50680;52.626;-8.668;2023-05-10T14:19:48;2.95;;;0.50;;
64351;SDS011;50680;52.626;-8.668;2023-05-10T14:22:15;5.95;;;0.60;;
64351;SDS011;50680;52.626;-8.668;2023-05-10T14:24:42;4.03;;;0.80;;
64351;SDS011;50680;52.626;-8.668;2023-05-10T14:27:12;3.33;;;0.57;;
64351;SDS011;50680;52.626;-8.668;2023-05-10T14:29:39;4.05;;;0.40;;
64351;SDS011;50680;52.626;-8.668;2023-05-10T14:32:06;4.07;;;0.40;;
64351;SDS011;50680;52.626;-8.668;2023-05-10T14:34:33;3.92;;;0.40;;
64351;SDS011;50680;52.626;-8.668;2023-05-10T14:37:00;2.33;;;0.50;;
64351;SDS011;50680;52.626;-8.668;2023-05-10T14:39:27;4.13;;;0.40;;
64351;SDS011;50680;52.626;-8.668;2023-05-10T14:41:56;6.38;;;0.50;;
64351;SDS011;50680;52.626;-8.668;2023-05-10T14:44:23;3.60;;;0.65;;
64351;SDS011;50680;52.626;-8.668;2023-05-10T14:46:50;5.93;;;0.60;;
64351;SDS011;50680;52.626;-8.668;2023-05-10T14:49:17;8.63;;;0.80;;
64351;SDS011;50680;52.626;-8.668;2023-05-10T14:51:43;5.32;;;0.95;;
64351;SDS011;50680;52.626;-8.668;2023-05-10T14:54:11;5.65;;;0.70;;
64351;SDS011;50680;52.626;-8.668;2023-05-10T14:56:38;8.15;;;0.90;;
64351;SDS011;50680;52.626;-8.668;2023-05-10T14:59:05;7.35;;;0.77;;